Time;durP1;ratioP1;P1;durP2;ratioP2;P2;SDS_P1;SDS_P2;PMS_P1;PMS_P2;Temp;Humidity;BMP_temperature;BMP_pressure;BME280_temperature;BME280_humidity;BME280_pressure;Samples;Min_cycle;Max_cycle;Signal;HPM_P1;HPM_P2
2022/01/22 00:00:41;;;;;;;15.52;6.03;;;2.90;99.90;;;;;;5114436;28;20325;-72
2022/01/22 00:03:07;;;;;;;18.23;7.13;;;2.90;99.90;;;;;;5114205;28;20042;-71
2022/01/22 00:05:34;;;;;;;15.60;5.60;;;2.90;99.90;;;;;;5112812;28;20032;-70
2022/01/22 00:08:00;;;;;;;17.40;5.90;;;2.80;99.90;;;;;;5112962;28;20104;-72
2022/01/22 00:10:26;;;;;;;17.45;6.05;;;2.90;99.90;;;;;;5114605;28;20057;-72
2022/01/22 00:15:28;;;;;;;15.05;6.22;;;2.90;99.90;;;;;;5113927;28;20027;-71
2022/01/22 00:17:54;;;;;;;15.18;6.05;;;2.90;99.90;;;;;;5112986;28;20024;-70
2022/01/22 00:20:23;;;;;;;14.18;5.28;;;2.80;99.90;;;;;;5112740;28;20015;-72
2022/01/22 00:22:49;;;;;;;14.77;5.85;;;2.80;99.90;;;;;;5112492;28;20028;-71
2022/01/22 00:25:17;;;;;;;17.45;5.88;;;2.90;99.90;;;;;;5113690;28;20016;-72
2022/01/22 00:27:45;;;;;;;17.17;6.18;;;2.90;99.90;;;;;;5112176;28;20035;-73
2022/01/22 00:30:13;;;;;;;11.52;5.93;;;2.90;99.90;;;;;;5112304;28;20020;-72
2022/01/22 00:32:38;;;;;;;13.50;5.88;;;2.90;99.90;;;;;;5112256;28;20406;-71
2022/01/22 00:35:06;;;;;;;13.77;6.30;;;2.90;99.90;;;;;;5113558;28;20020;-70
2022/01/22 00:37:33;;;;;;;14.85;6.13;;;2.90;99.90;;;;;;5112187;28;20493;-70
2022/01/22 00:39:58;;;;;;;16.42;5.72;;;3.00;99.90;;;;;;5112372;28;20483;-70
2022/01/22 00:42:24;;;;;;;12.90;5.70;;;2.90;99.90;;;;;;5113737;28;20031;-71
2022/01/22 00:44:51;;;;;;;14.65;6.75;;;2.90;99.90;;;;;;5113465;28;20062;-71
2022/01/22 00:47:20;;;;;;;;;;;3.00;99.90;;;;;;5113625;28;20202;-70
2022/01/22 00:49:46;;;;;;;14.57;6.90;;;2.90;99.90;;;;;;5112141;28;20264;-71
2022/01/22 00:52:12;;;;;;;15.00;6.63;;;2.90;99.90;;;;;;5113666;28;20529;-72
2022/01/22 00:54:38;;;;;;;11.52;6.85;;;2.90;99.90;;;;;;5113525;28;20028;-71
2022/01/22 00:57:04;;;;;;;8.30;6.00;;;2.90;99.90;;;;;;5113740;28;20035;-71
2022/01/22 00:59:29;;;;;;;13.85;6.05;;;3.00;99.90;;;;;;5112993;28;20028;-71
2022/01/22 01:01:55;;;;;;;13.90;6.20;;;2.90;99.90;;;;;;5116129;28;20032;-68
2022/01/22 01:04:21;;;;;;;17.02;5.82;;;2.90;99.90;;;;;;5118072;28;20058;-67
2022/01/22 01:06:47;;;;;;;16.05;5.78;;;2.90;99.90;;;;;;5118681;27;20384;-69
2022/01/22 01:09:13;;;;;;;13.30;6.13;;;2.90;99.90;;;;;;5118704;28;20086;-69
2022/01/22 01:11:47;;;;;;;12.02;6.05;;;2.90;99.90;;;;;;5121349;28;20568;-68
2022/01/22 01:14:19;;;;;;;14.02;6.10;;;2.90;99.90;;;;;;5121868;28;20032;-68
2022/01/22 01:33:25;;;;;;;17.85;6.78;;;3.00;99.90;;;;;;5119957;28;20039;-68
2022/01/22 01:35:51;;;;;;;14.35;7.55;;;3.10;99.90;;;;;;5119763;28;20434;-68
2022/01/22 01:38:20;;;;;;;13.60;6.53;;;3.00;99.90;;;;;;5116854;28;20023;-68
2022/01/22 01:40:54;;;;;;;18.70;6.95;;;3.00;99.90;;;;;;5117786;28;20388;-68
2022/01/22 01:43:25;;;;;;;16.10;6.78;;;3.00;99.90;;;;;;5119297;28;20058;-68
2022/01/22 01:45:51;;;;;;;15.88;6.90;;;3.00;99.90;;;;;;5118046;28;20400;-68
2022/01/22 01:48:22;;;;;;;15.67;7.00;;;3.10;99.90;;;;;;5117163;27;20016;-68
2022/01/22 01:50:48;;;;;;;15.63;7.03;;;3.00;99.90;;;;;;5118996;28;20016;-68
2022/01/22 01:53:25;;;;;;;13.67;7.87;;;3.00;99.90;;;;;;5118929;28;20094;-68
2022/01/22 01:58:25;;;;;;;15.10;7.55;;;3.00;99.90;;;;;;5116838;28;20038;-68
2022/01/22 02:00:51;;;;;;;10.93;6.50;;;3.00;99.90;;;;;;5116425;28;20068;-68
2022/01/22 02:03:18;;;;;;;15.63;7.30;;;3.00;99.90;;;;;;5116344;27;20031;-68
2022/01/22 02:05:44;;;;;;;18.27;7.47;;;3.00;99.90;;;;;;5116284;27;20057;-68
2022/01/22 02:08:12;;;;;;;15.60;7.13;;;3.00;99.90;;;;;;5115064;28;20023;-68
2022/01/22 02:10:43;;;;;;;13.43;7.45;;;3.00;99.90;;;;;;5116324;28;20107;-68
2022/01/22 02:24:07;;;;;;;18.63;7.82;;;3.00;99.90;;;;;;5116134;28;20084;-67
2022/01/22 02:26:33;;;;;;;;;;;3.00;99.90;;;;;;5116077;28;20024;-68
2022/01/22 02:28:58;;;;;;;19.33;7.68;;;3.00;99.90;;;;;;5114549;28;19903;-68
2022/01/22 02:31:38;;;;;;;14.67;7.47;;;3.00;99.90;;;;;;5115918;28;20499;-68
2022/01/22 02:34:18;;;;;;;25.02;8.48;;;2.90;99.90;;;;;;5118204;28;20079;-68
2022/01/22 02:36:59;;;;;;;15.10;7.63;;;2.90;99.90;;;;;;5118303;28;20019;-68
2022/01/22 02:39:38;;;;;;;20.50;9.18;;;2.90;99.90;;;;;;5116647;28;20027;-68
2022/01/22 02:42:04;;;;;;;22.83;9.27;;;2.90;99.90;;;;;;5114495;28;20161;-68
2022/01/22 02:44:34;;;;;;;20.35;7.43;;;2.90;99.90;;;;;;5114005;28;20063;-68
2022/01/22 02:47:05;;;;;;;15.95;8.68;;;2.90;99.90;;;;;;5114200;28;20495;-68
2022/01/22 02:49:31;;;;;;;17.08;8.40;;;3.00;99.90;;;;;;5115679;28;20043;-68
2022/01/22 02:52:07;;;;;;;16.58;7.53;;;3.00;99.90;;;;;;5115496;28;20027;-68
2022/01/22 02:54:33;;;;;;;16.65;8.30;;;2.90;99.90;;;;;;5115550;28;20023;-68
2022/01/22 02:56:59;;;;;;;23.20;8.40;;;2.90;99.90;;;;;;5116882;28;20110;-68
2022/01/22 02:59:25;;;;;;;20.50;8.83;;;2.90;99.90;;;;;;5115913;28;20085;-68
2022/01/22 03:01:52;;;;;;;14.67;8.53;;;3.00;99.90;;;;;;5114826;28;20837;-68
2022/01/22 03:04:17;;;;;;;19.67;8.65;;;3.00;99.90;;;;;;5115831;28;20028;-68
2022/01/22 03:06:44;;;;;;;22.33;8.83;;;3.00;99.90;;;;;;5114342;28;20475;-68
2022/01/22 03:09:12;;;;;;;16.73;8.25;;;3.00;99.90;;;;;;5115728;28;20103;-68
2022/01/22 03:12:12;;;;;;;19.08;8.63;;;2.90;99.90;;;;;;5114043;28;20032;-68
2022/01/22 03:27:29;;;;;;;23.50;8.40;;;3.10;99.90;;;;;;5115570;28;20322;-67
2022/01/22 03:29:56;;;;;;;18.60;8.15;;;3.10;99.90;;;;;;5115239;28;20405;-68
2022/01/22 03:32:24;;;;;;;18.67;8.90;;;3.10;99.90;;;;;;5115309;28;20103;-67
2022/01/22 03:34:59;;;;;;;18.35;7.95;;;3.00;99.90;;;;;;5114600;28;20027;-67
2022/01/22 03:37:26;;;;;;;17.38;8.13;;;2.90;99.90;;;;;;5114981;28;20084;-67
2022/01/22 03:39:52;;;;;;;20.58;8.18;;;3.00;99.90;;;;;;5113447;28;20031;-68
2022/01/22 03:42:18;;;;;;;15.80;8.45;;;3.00;99.90;;;;;;5114825;28;20035;-68
2022/01/22 03:44:43;;;;;;;20.77;9.40;;;3.00;99.90;;;;;;5113192;28;20036;-68
2022/01/22 03:47:09;;;;;;;19.57;8.50;;;3.00;99.90;;;;;;5113156;28;20548;-68
2022/01/22 03:49:35;;;;;;;25.37;8.80;;;3.00;99.90;;;;;;5114540;28;20575;-68
2022/01/22 03:52:00;;;;;;;18.33;8.90;;;3.10;99.90;;;;;;5114680;28;20022;-68
2022/01/22 03:54:26;;;;;;;17.63;8.87;;;3.10;99.90;;;;;;5114204;28;20046;-68
2022/01/22 03:56:53;;;;;;;18.27;8.07;;;3.10;99.90;;;;;;5114199;28;20051;-68
2022/01/22 03:59:19;;;;;;;20.10;8.05;;;3.10;99.90;;;;;;5112875;28;20027;-68
2022/01/22 04:04:18;;;;;;;19.63;8.32;;;3.20;99.90;;;;;;5114402;28;20027;-68
2022/01/22 04:09:31;;;;;;;18.85;8.00;;;3.20;99.90;;;;;;5114397;28;20458;-68
2022/01/22 04:11:58;;;;;;;18.10;8.45;;;3.10;99.90;;;;;;5114000;28;20018;-68
2022/01/22 04:14:29;;;;;;;13.10;7.45;;;3.10;99.90;;;;;;5114016;28;20012;-69
2022/01/22 04:25:00;;;;;;;21.73;8.68;;;3.10;99.90;;;;;;5113932;28;20034;-68
2022/01/22 04:27:27;;;;;;;17.77;7.80;;;3.20;99.90;;;;;;5113877;28;20468;-68
2022/01/22 04:29:58;;;;;;;21.42;8.40;;;3.30;99.90;;;;;;5113883;28;20257;-68
2022/01/22 04:32:25;;;;;;;26.92;8.75;;;3.30;99.90;;;;;;5112360;28;20020;-68
2022/01/22 04:34:51;;;;;;;16.98;8.68;;;3.30;99.90;;;;;;5114191;28;20027;-68
2022/01/22 04:37:20;;;;;;;20.97;8.37;;;3.30;99.90;;;;;;5128106;28;20026;-68
2022/01/22 04:39:47;;;;;;;20.27;8.50;;;3.30;99.90;;;;;;5126620;28;20254;-68
2022/01/22 04:42:17;;;;;;;16.50;9.13;;;3.30;99.90;;;;;;5112210;28;20031;-68
2022/01/22 04:47:27;;;;;;;16.13;7.68;;;3.40;99.90;;;;;;5113924;28;20412;-68
2022/01/22 04:52:44;;;;;;;22.10;9.50;;;3.30;99.90;;;;;;5113786;28;20062;-67
2022/01/22 04:55:10;;;;;;;21.23;9.32;;;3.30;99.90;;;;;;5113458;28;20047;-67
2022/01/22 04:57:38;;;;;;;;;;;3.30;99.90;;;;;;5114195;28;20044;-67
2022/01/22 05:00:08;;;;;;;;;;;3.30;99.90;;;;;;5113754;28;19904;-68
2022/01/22 05:02:34;;;;;;;19.88;8.13;;;3.30;99.90;;;;;;5113287;28;19903;-68
2022/01/22 05:04:59;;;;;;;17.07;8.07;;;3.30;99.90;;;;;;5113703;28;20076;-68
2022/01/22 05:07:25;;;;;;;29.67;9.60;;;3.30;99.90;;;;;;5114234;28;20281;-68
2022/01/22 05:09:51;;;;;;;19.00;8.67;;;3.30;99.90;;;;;;5113951;28;20426;-68
2022/01/22 05:12:16;;;;;;;16.87;8.77;;;3.40;99.90;;;;;;5113677;28;20024;-68
2022/01/22 05:14:43;;;;;;;17.13;8.03;;;3.40;99.90;;;;;;5112294;28;20016;-68
2022/01/22 05:17:09;;;;;;;19.27;8.75;;;3.40;99.90;;;;;;5113718;28;20027;-69
2022/01/22 05:22:17;;;;;;;15.52;8.05;;;3.40;99.90;;;;;;5113797;28;20126;-69
2022/01/22 05:24:48;;;;;;;20.75;8.48;;;3.40;99.90;;;;;;5113033;28;20023;-67
2022/01/22 05:27:37;;;;;;;18.02;8.82;;;3.40;99.90;;;;;;5113218;28;20035;-67
2022/01/22 05:30:36;;;;;;;18.05;8.82;;;3.40;99.90;;;;;;5113461;28;20541;-67
2022/01/22 05:33:03;;;;;;;21.08;9.23;;;3.40;99.90;;;;;;5113506;28;20379;-68
2022/01/22 05:38:13;;;;;;;20.23;8.10;;;3.40;99.90;;;;;;5114709;28;20049;-68
2022/01/22 05:40:39;;;;;;;20.10;8.73;;;3.40;99.90;;;;;;5115275;28;20473;-67
2022/01/22 05:43:05;;;;;;;14.53;8.13;;;3.50;99.90;;;;;;5114529;28;20480;-68
2022/01/22 05:45:30;;;;;;;19.70;9.57;;;3.40;99.90;;;;;;5113265;28;20039;-68
2022/01/22 05:47:56;;;;;;;18.17;8.93;;;3.50;99.90;;;;;;5114439;28;20024;-67
2022/01/22 05:50:31;;;;;;;19.73;8.80;;;3.40;99.90;;;;;;5117137;28;20027;-70
2022/01/22 05:53:02;;;;;;;21.20;8.43;;;3.40;99.90;;;;;;5117024;28;20024;-69
2022/01/22 05:59:35;;;;;;;19.40;8.73;;;3.40;99.90;;;;;;5116692;28;20020;-66
2022/01/22 06:00:58;;;;;;;19.45;8.07;;;3.50;99.90;;;;;;5116784;28;20030;-66
2022/01/22 06:03:23;;;;;;;21.03;8.73;;;3.50;99.90;;;;;;5116397;28;20119;-65
2022/01/22 06:05:49;;;;;;;14.40;7.87;;;3.50;99.90;;;;;;5115290;28;20043;-68
2022/01/22 06:08:16;;;;;;;16.23;9.07;;;3.50;99.90;;;;;;5116621;28;20027;-67
2022/01/22 06:10:45;;;;;;;21.55;9.63;;;3.50;99.90;;;;;;5114949;28;20019;-69
2022/01/22 06:13:18;;;;;;;17.58;9.43;;;3.50;99.90;;;;;;5116303;28;20019;-67
2022/01/22 06:15:43;;;;;;;20.05;8.93;;;3.50;99.90;;;;;;5116341;28;20028;-66
2022/01/22 06:18:09;;;;;;;22.50;9.13;;;3.50;99.90;;;;;;5114758;28;20034;-66
2022/01/22 06:20:35;;;;;;;21.50;9.00;;;3.40;99.90;;;;;;5115528;28;20027;-68
2022/01/22 06:23:01;;;;;;;19.45;10.20;;;3.40;99.90;;;;;;5116295;28;20063;-67
2022/01/22 06:25:28;;;;;;;20.85;10.65;;;3.50;99.90;;;;;;5115857;28;20568;-68
2022/01/22 06:27:56;;;;;;;22.95;10.48;;;3.50;99.90;;;;;;5115934;28;20026;-68
2022/01/22 06:30:22;;;;;;;24.15;9.70;;;3.50;99.90;;;;;;5115758;28;20028;-69
2022/01/22 06:32:48;;;;;;;18.42;9.68;;;3.50;99.90;;;;;;5116149;28;20020;-69
2022/01/22 06:35:14;;;;;;;22.67;11.57;;;3.50;99.90;;;;;;5116395;28;20023;-68
2022/01/22 06:37:40;;;;;;;20.73;9.32;;;3.50;99.90;;;;;;5116712;28;20027;-68
2022/01/22 06:42:33;;;;;;;18.33;10.13;;;3.50;99.90;;;;;;5115654;28;20021;-67
2022/01/22 06:45:00;;;;;;;24.10;10.50;;;3.50;99.90;;;;;;5114529;28;20044;-67
2022/01/22 06:47:27;;;;;;;25.25;10.25;;;3.60;99.90;;;;;;5115788;28;20403;-66
2022/01/22 06:49:53;;;;;;;30.45;11.10;;;3.70;99.90;;;;;;5115829;28;20030;-67
2022/01/22 06:52:19;;;;;;;21.45;10.82;;;3.60;99.90;;;;;;5116291;28;20028;-66
2022/01/22 06:54:46;;;;;;;24.77;11.48;;;3.60;99.90;;;;;;5114190;28;20050;-66
2022/01/22 06:57:12;;;;;;;;;;;3.60;99.90;;;;;;5116033;28;20023;-66
2022/01/22 06:59:38;;;;;;;20.35;10.40;;;3.60;99.90;;;;;;5114205;28;20313;-66
2022/01/22 07:02:04;;;;;;;25.23;11.38;;;3.60;99.90;;;;;;5116275;28;20038;-68
2022/01/22 07:04:31;;;;;;;26.95;11.85;;;3.70;99.90;;;;;;5116881;28;20123;-68
2022/01/22 07:06:57;;;;;;;27.58;12.05;;;3.70;99.90;;;;;;5115175;28;20066;-63
2022/01/22 07:09:23;;;;;;;25.27;11.25;;;3.70;99.90;;;;;;5115530;28;20117;-60
2022/01/22 07:11:49;;;;;;;29.67;11.93;;;3.70;99.90;;;;;;5114036;28;20123;-63
2022/01/22 07:14:15;;;;;;;25.77;10.60;;;3.70;99.90;;;;;;5116771;28;20258;-63
2022/01/22 07:16:41;;;;;;;20.23;11.30;;;3.70;99.90;;;;;;5115389;28;20038;-68
2022/01/22 07:19:07;;;;;;;20.63;11.53;;;3.80;99.90;;;;;;5114917;28;20098;-68
2022/01/22 07:21:33;;;;;;;25.67;12.70;;;3.80;99.90;;;;;;5115174;28;20631;-68
2022/01/22 07:26:27;;;;;;;28.33;11.98;;;3.80;99.90;;;;;;5115203;28;20024;-68
2022/01/22 07:28:52;;;;;;;21.93;11.60;;;3.80;99.90;;;;;;5115058;28;20080;-69
2022/01/22 07:31:20;;;;;;;23.93;11.63;;;3.80;99.90;;;;;;5115110;28;20016;-68
2022/01/22 07:33:47;;;;;;;27.05;11.73;;;3.90;99.90;;;;;;5115157;28;20054;-68
2022/01/22 07:36:13;;;;;;;23.58;11.80;;;3.80;99.90;;;;;;5114915;28;20028;-69
2022/01/22 07:38:39;;;;;;;25.25;11.20;;;3.80;99.90;;;;;;5115109;28;20068;-70
2022/01/22 07:41:07;;;;;;;24.40;11.73;;;3.90;99.90;;;;;;5114738;28;20472;-69
2022/01/22 07:43:37;;;;;;;25.83;12.10;;;3.90;99.90;;;;;;5113410;28;20068;-69
2022/01/22 07:46:04;;;;;;;26.50;11.82;;;3.90;99.90;;;;;;5114518;28;20027;-69
2022/01/22 07:48:29;;;;;;;25.33;11.20;;;3.90;99.90;;;;;;5116187;28;20450;-69
2022/01/22 07:50:55;;;;;;;23.57;11.43;;;3.90;99.90;;;;;;5115770;28;20023;-68
2022/01/22 07:53:21;;;;;;;24.43;12.33;;;3.90;99.90;;;;;;5115324;28;20042;-68
2022/01/22 07:55:46;;;;;;;23.60;11.47;;;3.90;99.90;;;;;;5115031;28;20047;-68
2022/01/22 07:58:14;;;;;;;20.00;11.67;;;3.90;99.90;;;;;;5113494;28;20345;-68
2022/01/22 08:00:40;;;;;;;20.50;11.15;;;3.90;99.90;;;;;;5114596;28;20019;-68
2022/01/22 08:03:06;;;;;;;33.23;13.47;;;3.90;99.90;;;;;;5114607;28;20048;-73
2022/01/22 08:05:33;;;;;;;24.23;11.75;;;3.90;99.90;;;;;;5116907;28;20425;-72
2022/01/22 08:07:58;;;;;;;21.55;11.60;;;3.90;99.90;;;;;;5115852;28;20122;-69
2022/01/22 08:10:24;;;;;;;22.60;11.27;;;3.90;99.90;;;;;;5113550;28;20089;-68
2022/01/22 08:12:51;;;;;;;25.40;12.10;;;4.00;99.90;;;;;;5114084;28;20057;-69
2022/01/22 08:15:18;;;;;;;28.42;12.30;;;4.00;99.90;;;;;;5114570;28;20261;-68
2022/01/22 08:17:44;;;;;;;21.73;10.98;;;4.00;99.90;;;;;;5114881;28;20034;-68
2022/01/22 08:20:15;;;;;;;;;;;4.00;99.90;;;;;;5114831;28;20077;-68
2022/01/22 08:22:44;;;;;;;26.30;10.93;;;4.00;99.90;;;;;;5114675;28;20053;-70
2022/01/22 08:25:10;;;;;;;24.95;11.90;;;4.00;99.90;;;;;;5113177;28;20024;-69
2022/01/22 08:28:52;;;;;;;;;;;4.00;99.90;;;;;;5114736;28;20042;-70
2022/01/22 08:30:30;;;;;;;24.75;9.95;;;4.00;99.90;;;;;;5114273;28;19903;-71
2022/01/22 08:38:05;;;;;;;24.58;10.88;;;4.10;99.90;;;;;;5114250;28;20065;-70
2022/01/22 08:40:31;;;;;;;26.75;10.30;;;4.00;99.90;;;;;;5118430;28;20032;-69
2022/01/22 08:42:57;;;;;;;21.45;10.75;;;4.10;99.90;;;;;;5125650;28;20028;-69
2022/01/22 08:45:23;;;;;;;25.20;12.40;;;4.20;99.90;;;;;;5122395;28;20028;-69
2022/01/22 08:47:48;;;;;;;21.37;10.40;;;4.20;99.90;;;;;;5114414;28;20031;-68
2022/01/22 08:50:14;;;;;;;20.03;11.30;;;4.10;99.90;;;;;;5112537;28;20020;-69
2022/01/22 08:52:40;;;;;;;25.00;10.40;;;4.10;99.90;;;;;;5112429;28;20031;-69
2022/01/22 08:55:06;;;;;;;26.87;11.37;;;4.10;99.90;;;;;;5114214;28;20265;-69
2022/01/22 08:57:32;;;;;;;20.38;9.98;;;4.20;99.90;;;;;;5114534;28;20023;-70
2022/01/22 08:59:58;;;;;;;23.77;9.45;;;4.10;99.90;;;;;;5114275;28;20503;-71
2022/01/22 09:02:23;;;;;;;19.53;9.57;;;4.20;99.90;;;;;;5114543;28;20031;-69
2022/01/22 09:04:51;;;;;;;20.83;10.80;;;4.20;99.90;;;;;;5112795;28;20034;-69
2022/01/22 09:07:17;;;;;;;19.80;9.43;;;4.20;99.90;;;;;;5114134;28;20043;-69
2022/01/22 09:09:43;;;;;;;24.20;10.03;;;4.30;99.90;;;;;;5112793;28;20082;-70
2022/01/22 09:12:09;;;;;;;19.13;9.97;;;4.20;99.90;;;;;;5112532;28;20088;-69
2022/01/22 09:14:35;;;;;;;23.23;9.43;;;4.30;99.90;;;;;;5113948;28;20465;-70
2022/01/22 09:17:02;;;;;;;25.55;10.40;;;4.30;99.90;;;;;;5129880;28;20130;-70
2022/01/22 09:19:33;;;;;;;21.52;9.80;;;4.30;99.90;;;;;;5127928;28;20034;-69
2022/01/22 09:22:05;;;;;;;16.58;9.40;;;4.20;99.90;;;;;;5113805;28;20042;-70
2022/01/22 09:24:31;;;;;;;16.10;9.10;;;4.20;99.90;;;;;;5117256;28;20024;-70
2022/01/22 09:26:59;;;;;;;18.53;9.30;;;4.20;99.90;;;;;;5117417;28;20073;-70
2022/01/22 09:29:25;;;;;;;20.17;10.00;;;4.30;99.90;;;;;;5116149;28;20024;-69
2022/01/22 09:31:50;;;;;;;18.45;9.30;;;4.30;99.90;;;;;;5116037;28;20077;-70
2022/01/22 09:34:16;;;;;;;18.00;9.67;;;4.30;99.90;;;;;;5117379;28;20484;-69
2022/01/22 09:36:42;;;;;;;20.77;10.37;;;4.30;99.90;;;;;;5117293;28;20028;-70
2022/01/22 09:39:08;;;;;;;16.90;9.43;;;4.30;99.90;;;;;;5115769;28;20265;-68
2022/01/22 09:41:34;;;;;;;19.65;9.85;;;4.30;99.90;;;;;;5115430;28;20085;-69
2022/01/22 09:44:00;;;;;;;15.98;9.15;;;4.40;99.90;;;;;;5115754;28;20034;-69
2022/01/22 09:46:26;;;;;;;20.15;9.30;;;4.40;99.90;;;;;;5115366;28;20036;-70
2022/01/22 09:48:54;;;;;;;24.23;11.30;;;4.30;99.90;;;;;;5115677;28;20024;-70
2022/01/22 09:51:20;;;;;;;21.98;9.88;;;4.40;99.90;;;;;;5116963;28;20102;-69
2022/01/22 09:53:46;;;;;;;21.48;9.82;;;4.40;99.90;;;;;;5117253;28;20019;-69
2022/01/22 09:56:12;;;;;;;22.52;8.95;;;4.40;99.90;;;;;;5117683;28;20377;-70
2022/01/22 09:58:38;;;;;;;18.48;9.23;;;4.50;99.90;;;;;;5116543;28;20020;-69
2022/01/22 10:01:22;;;;;;;25.13;9.63;;;4.50;99.90;;;;;;5115499;28;20030;-69
2022/01/22 10:03:50;;;;;;;22.65;10.38;;;4.40;99.90;;;;;;5116603;28;20027;-69
2022/01/22 10:06:20;;;;;;;17.80;9.27;;;4.60;99.90;;;;;;5115042;28;20051;-69
2022/01/22 10:08:46;;;;;;;19.83;9.77;;;4.60;99.90;;;;;;5116688;28;20053;-70
2022/01/22 10:11:17;;;;;;;24.67;12.43;;;4.60;99.90;;;;;;5116805;28;20099;-69
2022/01/22 10:13:52;;;;;;;20.05;9.00;;;4.60;99.90;;;;;;5116466;28;20457;-70
2022/01/22 10:16:35;;;;;;;20.60;9.30;;;4.60;99.90;;;;;;5116969;28;20054;-69
2022/01/22 10:19:10;;;;;;;17.00;8.68;;;4.70;99.90;;;;;;5117161;27;20024;-70
2022/01/22 10:21:37;;;;;;;22.30;9.55;;;4.70;99.90;;;;;;5118910;28;20024;-69
2022/01/22 10:24:46;;;;;;;24.48;10.10;;;4.80;99.90;;;;;;5117333;28;20544;-69
2022/01/22 10:27:39;;;;;;;19.08;9.13;;;4.70;99.90;;;;;;5114782;28;20365;-69
2022/01/22 10:30:13;;;;;;;28.20;11.93;;;4.70;99.90;;;;;;5116299;28;20106;-69
2022/01/22 10:33:07;;;;;;;22.95;10.02;;;4.80;99.90;;;;;;5115250;28;20354;-69
2022/01/22 10:35:34;;;;;;;22.00;9.80;;;4.70;99.90;;;;;;5119922;28;20488;-70
2022/01/22 10:38:01;;;;;;;;;;;4.70;99.90;;;;;;5126845;28;20497;-70
2022/01/22 10:40:29;;;;;;;;;;;4.70;99.90;;;;;;5123399;28;19911;-69
2022/01/22 10:43:16;;;;;;;22.75;9.45;;;4.60;99.90;;;;;;5114872;28;19953;-68
2022/01/22 10:46:01;;;;;;;22.10;9.18;;;4.70;99.90;;;;;;5116963;28;20032;-69
2022/01/22 10:48:27;;;;;;;23.88;9.60;;;4.70;99.90;;;;;;5115214;28;20475;-69
2022/01/22 10:51:13;;;;;;;19.95;9.32;;;4.70;99.90;;;;;;5116092;28;20086;-69
2022/01/22 10:53:48;;;;;;;20.77;9.65;;;4.70;99.90;;;;;;5117751;28;20024;-72
2022/01/22 10:56:22;;;;;;;23.50;9.30;;;4.80;99.90;;;;;;5117382;28;20087;-72
2022/01/22 10:59:05;;;;;;;19.50;9.70;;;4.80;99.90;;;;;;5116759;28;20023;-73
2022/01/22 11:01:51;;;;;;;17.42;9.40;;;4.90;99.90;;;;;;5118777;28;20028;-73
2022/01/22 11:04:39;;;;;;;20.90;8.77;;;4.90;99.90;;;;;;5116901;28;20118;-70
2022/01/22 11:07:10;;;;;;;24.42;9.57;;;4.90;99.90;;;;;;5119426;28;20423;-70
2022/01/22 11:09:36;;;;;;;18.15;9.02;;;4.90;99.90;;;;;;5117685;28;20470;-71
2022/01/22 11:12:05;;;;;;;18.30;8.50;;;4.90;99.90;;;;;;5115580;28;20027;-70
2022/01/22 11:14:33;;;;;;;21.08;9.20;;;4.90;99.90;;;;;;5117856;28;20250;-70
2022/01/22 11:17:00;;;;;;;18.75;10.18;;;4.80;99.90;;;;;;5116633;28;20024;-70
2022/01/22 11:19:33;;;;;;;;;;;4.90;99.90;;;;;;5116473;28;20031;-71
2022/01/22 11:22:04;;;;;;;20.95;10.32;;;4.90;99.90;;;;;;5115545;28;19904;-69
2022/01/22 11:24:35;;;;;;;23.38;10.07;;;5.00;99.90;;;;;;5116540;28;20103;-72
2022/01/22 11:27:03;;;;;;;20.77;9.50;;;5.00;99.90;;;;;;5115475;28;20099;-71
2022/01/22 11:29:35;;;;;;;18.70;9.90;;;4.90;99.90;;;;;;5114368;28;20020;-72
2022/01/22 11:32:07;;;;;;;18.02;9.20;;;5.00;99.90;;;;;;5115389;28;20011;-69
2022/01/22 11:34:35;;;;;;;24.17;10.35;;;5.00;99.90;;;;;;5114169;28;20023;-69
2022/01/22 11:37:19;;;;;;;25.35;10.10;;;5.10;99.90;;;;;;5114221;28;20023;-68
2022/01/22 11:39:44;;;;;;;21.70;8.88;;;5.10;99.90;;;;;;5115200;28;20023;-69
2022/01/22 11:42:10;;;;;;;27.67;10.98;;;5.20;99.90;;;;;;5113678;28;20476;-70
2022/01/22 11:44:50;;;;;;;18.50;9.60;;;5.20;99.90;;;;;;5113653;28;20043;-69
2022/01/22 11:47:22;;;;;;;25.38;11.20;;;5.20;99.90;;;;;;5113392;28;20111;-69
2022/01/22 11:50:10;;;;;;;18.83;10.80;;;5.20;99.90;;;;;;5112423;28;20023;-68
2022/01/22 11:52:38;;;;;;;;;;;5.20;99.90;;;;;;5114655;28;20095;-69
2022/01/22 11:55:13;;;;;;;16.95;10.23;;;5.20;99.90;;;;;;5112971;28;19986;-70
2022/01/22 11:57:40;;;;;;;17.52;9.50;;;5.20;99.90;;;;;;5113363;28;20492;-70
2022/01/22 12:00:17;;;;;;;24.65;10.80;;;5.20;99.90;;;;;;5112967;28;20055;-70
2022/01/22 12:02:43;;;;;;;21.90;9.95;;;5.20;99.90;;;;;;5113358;28;20072;-70
2022/01/22 12:05:09;;;;;;;27.23;10.40;;;5.20;99.90;;;;;;5115245;28;20035;-69
2022/01/22 12:07:37;;;;;;;21.73;10.60;;;5.20;99.90;;;;;;5114099;28;20315;-69
2022/01/22 12:16:09;;;;;;;21.45;9.82;;;5.30;99.90;;;;;;5114546;28;20031;-70
2022/01/22 12:18:40;;;;;;;19.58;9.68;;;5.40;99.90;;;;;;5114523;28;20028;-70
2022/01/22 12:23:31;;;;;;;20.02;10.68;;;5.30;99.90;;;;;;5114603;28;20024;-70
2022/01/22 12:25:59;;;;;;;22.03;11.30;;;5.30;99.90;;;;;;5112775;28;20035;-70
2022/01/22 12:28:34;;;;;;;24.70;11.25;;;5.20;99.90;;;;;;5114170;28;20016;-70
2022/01/22 12:31:08;;;;;;;19.73;11.02;;;5.20;99.90;;;;;;5114903;28;20376;-70
2022/01/22 12:33:34;;;;;;;21.50;11.60;;;5.30;99.90;;;;;;5113133;28;20085;-71
2022/01/22 12:36:13;;;;;;;22.27;10.50;;;5.30;99.90;;;;;;5112757;28;20032;-69
2022/01/22 12:38:50;;;;;;;23.30;11.13;;;5.40;99.90;;;;;;5112412;28;20028;-70
2022/01/22 12:41:35;;;;;;;26.75;11.52;;;5.30;99.90;;;;;;5114020;28;20015;-70
2022/01/22 12:44:07;;;;;;;21.70;10.23;;;5.30;99.90;;;;;;5113905;28;20023;-70
2022/01/22 12:46:35;;;;;;;32.00;12.45;;;5.40;99.90;;;;;;5113871;28;20032;-70
2022/01/22 12:49:03;;;;;;;21.45;10.68;;;5.50;99.90;;;;;;5112195;28;20015;-71
2022/01/22 12:51:30;;;;;;;21.25;10.82;;;5.50;99.90;;;;;;5113551;28;20034;-71
2022/01/22 12:53:58;;;;;;;20.02;10.20;;;5.50;99.90;;;;;;5113673;28;20487;-70
2022/01/22 12:56:49;;;;;;;21.10;11.07;;;5.60;99.90;;;;;;5113206;28;20028;-70
2022/01/22 12:59:10;;;;;;;22.53;11.37;;;5.70;99.90;;;;;;5117131;28;20020;-69
2022/01/22 13:01:42;;;;;;;24.03;10.93;;;5.70;99.90;;;;;;5118127;28;20268;-70
2022/01/22 13:04:08;;;;;;;25.02;10.88;;;5.80;99.90;;;;;;5116416;28;20030;-74
2022/01/22 13:06:48;;;;;;;18.80;10.27;;;5.80;99.90;;;;;;5128211;28;20023;-74
2022/01/22 13:09:14;;;;;;;27.40;11.52;;;5.80;99.90;;;;;;5134709;28;20053;-74
2022/01/22 13:11:49;;;;;;;26.48;10.68;;;5.90;99.90;;;;;;5122439;28;20068;-72
2022/01/22 13:14:26;;;;;;;17.42;11.38;;;5.80;99.90;;;;;;5117254;28;20023;-72
2022/01/22 13:16:52;;;;;;;;;;;5.80;99.90;;;;;;5118754;28;20051;-74
2022/01/22 13:19:20;;;;;;;24.98;12.18;;;5.90;99.90;;;;;;5116602;28;19904;-76
2022/01/22 13:21:54;;;;;;;20.35;10.80;;;5.80;99.90;;;;;;5116825;28;20492;-77
2022/01/22 13:24:25;;;;;;;22.13;10.88;;;5.80;99.90;;;;;;5117537;28;20411;-75
2022/01/22 13:27:09;;;;;;;23.77;11.25;;;5.90;99.90;;;;;;5117128;28;20020;-74
2022/01/22 13:29:39;;;;;;;21.52;11.25;;;5.80;99.90;;;;;;5118093;28;20020;-74
2022/01/22 13:32:14;;;;;;;24.15;12.05;;;5.80;99.90;;;;;;5118443;28;20019;-77
2022/01/22 13:35:14;;;;;;;22.20;11.00;;;5.90;99.90;;;;;;5116124;28;20048;-72
2022/01/22 13:48:32;;;;;;;25.13;11.50;;;5.90;99.90;;;;;;5117960;28;20036;-70
2022/01/22 13:50:58;;;;;;;24.67;11.18;;;5.90;99.90;;;;;;5118036;28;20066;-71
2022/01/22 13:53:24;;;;;;;23.45;11.43;;;5.90;99.90;;;;;;5121682;28;20078;-70
2022/01/22 13:56:09;;;;;;;19.00;10.40;;;5.90;99.90;;;;;;5115370;28;20024;-70
2022/01/22 13:58:36;;;;;;;21.88;10.13;;;6.00;99.90;;;;;;5116571;28;20024;-72
2022/01/22 14:01:27;;;;;;;22.35;10.85;;;5.90;99.90;;;;;;5116799;28;20028;-69
2022/01/22 14:04:06;;;;;;;19.15;10.70;;;5.90;99.90;;;;;;5116789;28;20098;-68
2022/01/22 14:06:33;;;;;;;23.27;10.68;;;5.90;99.90;;;;;;5116735;28;20027;-68
2022/01/22 14:09:12;;;;;;;23.75;11.30;;;5.80;99.90;;;;;;5116440;28;20020;-70
2022/01/22 14:11:38;;;;;;;26.58;14.35;;;5.80;99.90;;;;;;5115734;28;20373;-70
2022/01/22 14:14:04;;;;;;;19.00;10.10;;;5.80;99.90;;;;;;5116431;28;20024;-70
2022/01/22 14:16:32;;;;;;;21.20;10.52;;;5.70;99.90;;;;;;5116389;28;20077;-68
2022/01/22 14:18:59;;;;;;;21.88;10.45;;;5.70;99.90;;;;;;5116926;28;20020;-70
2022/01/22 14:21:25;;;;;;;20.27;10.63;;;5.70;99.90;;;;;;5116607;28;20043;-70
2022/01/22 14:23:51;;;;;;;21.73;10.75;;;5.70;99.90;;;;;;5118571;28;20066;-70
2022/01/22 14:26:27;;;;;;;22.48;10.23;;;5.70;99.90;;;;;;5119788;28;20020;-71
2022/01/22 14:29:01;;;;;;;21.30;10.45;;;5.70;99.90;;;;;;5124244;28;20020;-71
2022/01/22 14:31:53;;;;;;;19.05;10.10;;;5.70;99.90;;;;;;5117462;28;20069;-71
2022/01/22 14:34:46;;;;;;;20.40;10.55;;;5.80;99.90;;;;;;5115776;28;20030;-73
2022/01/22 14:37:33;;;;;;;19.05;10.85;;;5.80;99.90;;;;;;5117316;27;20019;-69
2022/01/22 14:45:23;;;;;;;20.15;11.48;;;5.70;99.90;;;;;;5116740;28;20530;-72